<?xml version="1.0" encoding="UTF-8" standalone="no" ?><gpx xmlns="http://www.topografix.com/GPX/1/1" xmlns:gpxx="http://www.garmin.com/xmlschemas/GpxExtensions/v3" xmlns:wptx1="http://www.garmin.com/xmlschemas/WaypointExtension/v1" xmlns:gpxtpx="http://www.garmin.com/xmlschemas/TrackPointExtension/v1" creator="Dakota 20" version="1.1" xmlns:xsi="http://www.w3.org/2001/XMLSchema-instance" xsi:schemaLocation="http://www.topografix.com/GPX/1/1 http://www.topografix.com/GPX/1/1/gpx.xsd http://www.garmin.com/xmlschemas/GpxExtensions/v3 http://www8.garmin.com/xmlschemas/GpxExtensionsv3.xsd http://www.garmin.com/xmlschemas/WaypointExtension/v1 http://www8.garmin.com/xmlschemas/WaypointExtensionv1.xsd http://www.garmin.com/xmlschemas/TrackPointExtension/v1 http://www.garmin.com/xmlschemas/TrackPointExtensionv1.xsd"><metadata><link href="http://www.garmin.com"><text>Garmin International</text></link><time>2014-02-26T16:00:47Z</time></metadata><trk><name>Current Track: 26 FEB 2014 10:02</name><extensions><gpxx:TrackExtension><gpxx:DisplayColor>Cyan</gpxx:DisplayColor></gpxx:TrackExtension></extensions><trkseg><trkpt lat="51.7439511325" lon="-1.7891776655"><ele>103.48</ele><time>2014-02-26T10:02:57Z</time></trkpt><trkpt lat="51.7439479474" lon="-1.7891927529"><ele>102.04</ele><time>2014-02-26T10:03:21Z</time></trkpt><trkpt lat="51.7439450976" lon="-1.7892061640"><ele>103.96</ele><time>2014-02-26T10:03:23Z</time></trkpt><trkpt lat="51.7439326923" lon="-1.7892454751"><ele>103.48</ele><time>2014-02-26T10:03:26Z</time></trkpt><trkpt lat="51.7438435927" lon="-1.7893944215"><ele>103.96</ele><time>2014-02-26T10:03:37Z</time></trkpt><trkpt lat="51.7437874340" lon="-1.7895203177"><ele>103.48</ele><time>2014-02-26T10:03:42Z</time></trkpt><trkpt lat="51.7437409144" lon="-1.7896210682"><ele>103.96</ele><time>2014-02-26T10:03:57Z</time></trkpt><trkpt lat="51.7437407468" lon="-1.7896320485"><ele>103.96</ele><time>2014-02-26T10:04:14Z</time></trkpt><trkpt lat="51.7437341250" lon="-1.7897840962"><ele>103.96</ele><time>2014-02-26T10:04:29Z</time></trkpt><trkpt lat="51.7436986696" lon="-1.7899296898"><ele>103.96</ele><time>2014-02-26T10:04:44Z</time></trkpt><trkpt lat="51.7438673135" lon="-1.7899697553"><ele>105.40</ele><time>2014-02-26T10:05:02Z</time></trkpt><trkpt lat="51.7440298386" lon="-1.7900638003"><ele>106.36</ele><time>2014-02-26T10:05:19Z</time></trkpt><trkpt lat="51.7441290803" lon="-1.7900525685"><ele>107.32</ele><time>2014-02-26T10:05:34Z</time></trkpt><trkpt lat="51.7442318425" lon="-1.7901598569"><ele>107.32</ele><time>2014-02-26T10:05:50Z</time></trkpt><trkpt lat="51.7442696448" lon="-1.7901170254"><ele>107.81</ele><time>2014-02-26T10:05:55Z</time></trkpt><trkpt lat="51.7445418052" lon="-1.7901792191"><ele>108.29</ele><time>2014-02-26T10:06:12Z</time></trkpt><trkpt lat="51.7447244469" lon="-1.7902570870"><ele>109.25</ele><time>2014-02-26T10:06:30Z</time></trkpt><trkpt lat="51.7447632551" lon="-1.7902587634"><ele>110.21</ele><time>2014-02-26T10:06:33Z</time></trkpt><trkpt lat="51.7447948549" lon="-1.7902738508"><ele>109.73</ele><time>2014-02-26T10:06:35Z</time></trkpt><trkpt lat="51.7449769098" lon="-1.7902684864"><ele>111.17</ele><time>2014-02-26T10:06:51Z</time></trkpt><trkpt lat="51.7451798357" lon="-1.7903626990"><ele>112.61</ele><time>2014-02-26T10:07:11Z</time></trkpt><trkpt lat="51.7453178857" lon="-1.7904981505"><ele>113.09</ele><time>2014-02-26T10:07:31Z</time></trkpt><trkpt lat="51.7453997768" lon="-1.7906025890"><ele>114.53</ele><time>2014-02-26T10:07:49Z</time></trkpt><trkpt lat="51.7453817558" lon="-1.7907658685"><ele>115.50</ele><time>2014-02-26T10:08:02Z</time></trkpt><trkpt lat="51.7455030419" lon="-1.7909599934"><ele>115.50</ele><time>2014-02-26T10:08:17Z</time></trkpt><trkpt lat="51.7453885451" lon="-1.7911922559"><ele>116.46</ele><time>2014-02-26T10:08:30Z</time></trkpt><trkpt lat="51.7452539317" lon="-1.7914061621"><ele>116.94</ele><time>2014-02-26T10:08:44Z</time></trkpt><trkpt lat="51.7451106850" lon="-1.7915707827"><ele>116.94</ele><time>2014-02-26T10:09:00Z</time></trkpt><trkpt lat="51.7450184003" lon="-1.7916597147"><ele>117.90</ele><time>2014-02-26T10:09:09Z</time></trkpt><trkpt lat="51.7449422926" lon="-1.7917348165"><ele>117.42</ele><time>2014-02-26T10:09:16Z</time></trkpt><trkpt lat="51.7448189110" lon="-1.7918529175"><ele>117.90</ele><time>2014-02-26T10:09:34Z</time></trkpt><trkpt lat="51.7447603215" lon="-1.7919346411"><ele>117.90</ele><time>2014-02-26T10:10:04Z</time></trkpt><trkpt lat="51.7446831241" lon="-1.7921771295"><ele>117.90</ele><time>2014-02-26T10:10:23Z</time></trkpt><trkpt lat="51.7445506062" lon="-1.7924502119"><ele>118.38</ele><time>2014-02-26T10:10:44Z</time></trkpt><trkpt lat="51.7444968782" lon="-1.7925019283"><ele>118.38</ele><time>2014-02-26T10:10:50Z</time></trkpt><trkpt lat="51.7442755122" lon="-1.7927086260"><ele>116.94</ele><time>2014-02-26T10:11:09Z</time></trkpt><trkpt lat="51.7440715805" lon="-1.7929166649"><ele>115.50</ele><time>2014-02-26T10:11:34Z</time></trkpt><trkpt lat="51.7439585086" lon="-1.7931159027"><ele>114.05</ele><time>2014-02-26T10:11:52Z</time></trkpt><trkpt lat="51.7438277509" lon="-1.7933607381"><ele>110.69</ele><time>2014-02-26T10:12:12Z</time></trkpt><trkpt lat="51.7436965741" lon="-1.7936210800"><ele>108.77</ele><time>2014-02-26T10:12:34Z</time></trkpt><trkpt lat="51.7435642239" lon="-1.7938295379"><ele>106.36</ele><time>2014-02-26T10:12:56Z</time></trkpt><trkpt lat="51.7434609588" lon="-1.7940865271"><ele>104.44</ele><time>2014-02-26T10:13:16Z</time></trkpt><trkpt lat="51.7433816660" lon="-1.7942493036"><ele>102.52</ele><time>2014-02-26T10:13:35Z</time></trkpt><trkpt lat="51.7432617210" lon="-1.7944015190"><ele>100.60</ele><time>2014-02-26T10:13:56Z</time></trkpt><trkpt lat="51.7431657482" lon="-1.7944900319"><ele>99.63</ele><time>2014-02-26T10:14:17Z</time></trkpt><trkpt lat="51.7430947535" lon="-1.7944839131"><ele>99.15</ele><time>2014-02-26T10:14:36Z</time></trkpt><trkpt lat="51.7430718709" lon="-1.7945482861"><ele>99.63</ele><time>2014-02-26T10:14:56Z</time></trkpt><trkpt lat="51.7430044804" lon="-1.7947755195"><ele>99.15</ele><time>2014-02-26T10:15:21Z</time></trkpt><trkpt lat="51.7427645903" lon="-1.7946310993"><ele>98.67</ele><time>2014-02-26T10:15:45Z</time></trkpt><trkpt lat="51.7426074296" lon="-1.7943865154"><ele>98.67</ele><time>2014-02-26T10:16:04Z</time></trkpt><trkpt lat="51.7424894124" lon="-1.7942420952"><ele>98.19</ele><time>2014-02-26T10:16:23Z</time></trkpt><trkpt lat="51.7423803639" lon="-1.7940610461"><ele>99.15</ele><time>2014-02-26T10:16:40Z</time></trkpt><trkpt lat="51.7422714829" lon="-1.7938634846"><ele>98.67</ele><time>2014-02-26T10:16:58Z</time></trkpt><trkpt lat="51.7421318404" lon="-1.7935954314"><ele>98.19</ele><time>2014-02-26T10:17:19Z</time></trkpt><trkpt lat="51.7419999093" lon="-1.7933373526"><ele>98.19</ele><time>2014-02-26T10:17:37Z</time></trkpt><trkpt lat="51.7418237217" lon="-1.7931236979"><ele>97.23</ele><time>2014-02-26T10:17:57Z</time></trkpt><trkpt lat="51.7416508030" lon="-1.7931190878"><ele>98.67</ele><time>2014-02-26T10:18:14Z</time></trkpt><trkpt lat="51.7415689956" lon="-1.7931672838"><ele>98.19</ele><time>2014-02-26T10:18:34Z</time></trkpt><trkpt lat="51.7413704284" lon="-1.7932511866"><ele>98.67</ele><time>2014-02-26T10:18:55Z</time></trkpt><trkpt lat="51.7411540076" lon="-1.7932198383"><ele>100.11</ele><time>2014-02-26T10:19:15Z</time></trkpt><trkpt lat="51.7410591245" lon="-1.7931316607"><ele>101.08</ele><time>2014-02-26T10:19:35Z</time></trkpt><trkpt lat="51.7410107609" lon="-1.7930009868"><ele>103.00</ele><time>2014-02-26T10:19:52Z</time></trkpt><trkpt lat="51.7409584578" lon="-1.7927639466"><ele>103.96</ele><time>2014-02-26T10:20:07Z</time></trkpt><trkpt lat="51.7409171350" lon="-1.7925115675"><ele>104.92</ele><time>2014-02-26T10:20:23Z</time></trkpt><trkpt lat="51.7408535164" lon="-1.7923780438"><ele>106.36</ele><time>2014-02-26T10:20:39Z</time></trkpt><trkpt lat="51.7408063263" lon="-1.7922944762"><ele>108.77</ele><time>2014-02-26T10:20:56Z</time></trkpt><trkpt lat="51.7406609003" lon="-1.7921435181"><ele>109.73</ele><time>2014-02-26T10:21:14Z</time></trkpt><trkpt lat="51.7405339982" lon="-1.7921959888"><ele>110.69</ele><time>2014-02-26T10:21:29Z</time></trkpt><trkpt lat="51.7403846327" lon="-1.7921686638"><ele>111.17</ele><time>2014-02-26T10:21:45Z</time></trkpt><trkpt lat="51.7402240355" lon="-1.7921120021"><ele>112.61</ele><time>2014-02-26T10:22:02Z</time></trkpt><trkpt lat="51.7399864923" lon="-1.7920434382"><ele>113.09</ele><time>2014-02-26T10:22:23Z</time></trkpt><trkpt lat="51.7397533078" lon="-1.7920078989"><ele>113.57</ele><time>2014-02-26T10:22:43Z</time></trkpt><trkpt lat="51.7396983225" lon="-1.7921369802"><ele>114.53</ele><time>2014-02-26T10:23:01Z</time></trkpt><trkpt lat="51.7396109831" lon="-1.7921948154"><ele>114.05</ele><time>2014-02-26T10:23:23Z</time></trkpt><trkpt lat="51.7395715881" lon="-1.7921845056"><ele>114.05</ele><time>2014-02-26T10:23:47Z</time></trkpt><trkpt lat="51.7394168582" lon="-1.7922263313"><ele>114.05</ele><time>2014-02-26T10:24:05Z</time></trkpt><trkpt lat="51.7393228970" lon="-1.7922766227"><ele>115.50</ele><time>2014-02-26T10:24:24Z</time></trkpt><trkpt lat="51.7390886229" lon="-1.7922941409"><ele>115.98</ele><time>2014-02-26T10:24:45Z</time></trkpt><trkpt lat="51.7388537619" lon="-1.7923638783"><ele>116.94</ele><time>2014-02-26T10:25:09Z</time></trkpt><trkpt lat="51.7386038974" lon="-1.7924150079"><ele>117.90</ele><time>2014-02-26T10:25:32Z</time></trkpt><trkpt lat="51.7384620756" lon="-1.7924231384"><ele>118.38</ele><time>2014-02-26T10:25:51Z</time></trkpt><trkpt lat="51.7382819485" lon="-1.7924663052"><ele>118.38</ele><time>2014-02-26T10:26:09Z</time></trkpt><trkpt lat="51.7380970437" lon="-1.7925553210"><ele>118.38</ele><time>2014-02-26T10:26:31Z</time></trkpt><trkpt lat="51.7378642783" lon="-1.7926182691"><ele>118.38</ele><time>2014-02-26T10:26:53Z</time></trkpt><trkpt lat="51.7376252264" lon="-1.7926307581"><ele>118.38</ele><time>2014-02-26T10:27:17Z</time></trkpt><trkpt lat="51.7374601029" lon="-1.7927699815"><ele>117.42</ele><time>2014-02-26T10:27:37Z</time></trkpt><trkpt lat="51.7372342106" lon="-1.7928322591"><ele>116.46</ele><time>2014-02-26T10:27:59Z</time></trkpt><trkpt lat="51.7370312009" lon="-1.7928980570"><ele>116.46</ele><time>2014-02-26T10:28:21Z</time></trkpt><trkpt lat="51.7367914785" lon="-1.7930061836"><ele>115.50</ele><time>2014-02-26T10:28:45Z</time></trkpt><trkpt lat="51.7365868762" lon="-1.7931787670"><ele>114.53</ele><time>2014-02-26T10:29:09Z</time></trkpt><trkpt lat="51.7364018876" lon="-1.7933464050"><ele>114.05</ele><time>2014-02-26T10:29:30Z</time></trkpt><trkpt lat="51.7362296395" lon="-1.7934251949"><ele>113.57</ele><time>2014-02-26T10:29:51Z</time></trkpt><trkpt lat="51.7361349240" lon="-1.7935398594"><ele>114.05</ele><time>2014-02-26T10:30:07Z</time></trkpt><trkpt lat="51.7359478399" lon="-1.7935907375"><ele>114.53</ele><time>2014-02-26T10:30:27Z</time></trkpt><trkpt lat="51.7358256318" lon="-1.7936223373"><ele>114.53</ele><time>2014-02-26T10:30:38Z</time></trkpt><trkpt lat="51.7356600892" lon="-1.7936995346"><ele>115.01</ele><time>2014-02-26T10:30:57Z</time></trkpt><trkpt lat="51.7354507931" lon="-1.7937862873"><ele>115.01</ele><time>2014-02-26T10:31:15Z</time></trkpt><trkpt lat="51.7353266571" lon="-1.7938173842"><ele>115.98</ele><time>2014-02-26T10:31:32Z</time></trkpt><trkpt lat="51.7353065405" lon="-1.7937924061"><ele>115.50</ele><time>2014-02-26T10:31:53Z</time></trkpt><trkpt lat="51.7352183629" lon="-1.7938265204"><ele>115.50</ele><time>2014-02-26T10:32:15Z</time></trkpt><trkpt lat="51.7350117490" lon="-1.7939219903"><ele>115.50</ele><time>2014-02-26T10:32:35Z</time></trkpt><trkpt lat="51.7348166183" lon="-1.7940255068"><ele>115.50</ele><time>2014-02-26T10:32:54Z</time></trkpt><trkpt lat="51.7347213998" lon="-1.7940888740"><ele>115.50</ele><time>2014-02-26T10:33:11Z</time></trkpt><trkpt lat="51.7345653288" lon="-1.7941529956"><ele>115.01</ele><time>2014-02-26T10:33:26Z</time></trkpt><trkpt lat="51.7344066594" lon="-1.7942187097"><ele>115.01</ele><time>2014-02-26T10:33:42Z</time></trkpt><trkpt lat="51.7342292145" lon="-1.7942499742"><ele>114.53</ele><time>2014-02-26T10:33:59Z</time></trkpt><trkpt lat="51.7340091057" lon="-1.7942843400"><ele>115.01</ele><time>2014-02-26T10:34:19Z</time></trkpt><trkpt lat="51.7339802720" lon="-1.7943083961"><ele>114.53</ele><time>2014-02-26T10:34:22Z</time></trkpt><trkpt lat="51.7337499373" lon="-1.7943147663"><ele>115.01</ele><time>2014-02-26T10:34:43Z</time></trkpt><trkpt lat="51.7336451635" lon="-1.7943392415"><ele>115.01</ele><time>2014-02-26T10:34:53Z</time></trkpt><trkpt lat="51.7333915271" lon="-1.7944083083"><ele>116.46</ele><time>2014-02-26T10:35:16Z</time></trkpt><trkpt lat="51.7331009265" lon="-1.7944872659"><ele>117.90</ele><time>2014-02-26T10:35:41Z</time></trkpt><trkpt lat="51.7328586057" lon="-1.7945561651"><ele>118.38</ele><time>2014-02-26T10:36:05Z</time></trkpt><trkpt lat="51.7326094955" lon="-1.7946301773"><ele>119.34</ele><time>2014-02-26T10:36:28Z</time></trkpt><trkpt lat="51.7323634028" lon="-1.7946376372"><ele>118.86</ele><time>2014-02-26T10:36:50Z</time></trkpt><trkpt lat="51.7321320623" lon="-1.7946818098"><ele>118.86</ele><time>2014-02-26T10:37:12Z</time></trkpt><trkpt lat="51.7319026496" lon="-1.7947098892"><ele>117.90</ele><time>2014-02-26T10:37:34Z</time></trkpt><trkpt lat="51.7318563815" lon="-1.7947621085"><ele>115.98</ele><time>2014-02-26T10:37:43Z</time></trkpt><trkpt lat="51.7318874784" lon="-1.7947837338"><ele>118.38</ele><time>2014-02-26T10:37:54Z</time></trkpt><trkpt lat="51.7318920884" lon="-1.7947911099"><ele>116.94</ele><time>2014-02-26T10:38:21Z</time></trkpt><trkpt lat="51.7318955250" lon="-1.7948232125"><ele>118.86</ele><time>2014-02-26T10:38:28Z</time></trkpt><trkpt lat="51.7318913341" lon="-1.7948432453"><ele>116.94</ele><time>2014-02-26T10:38:39Z</time></trkpt><trkpt lat="51.7318622489" lon="-1.7950449977"><ele>117.42</ele><time>2014-02-26T10:38:52Z</time></trkpt><trkpt lat="51.7318557110" lon="-1.7951418087"><ele>116.46</ele><time>2014-02-26T10:38:57Z</time></trkpt><trkpt lat="51.7318098620" lon="-1.7953885719"><ele>118.38</ele><time>2014-02-26T10:39:13Z</time></trkpt><trkpt lat="51.7317911703" lon="-1.7954695411"><ele>118.38</ele><time>2014-02-26T10:39:16Z</time></trkpt><trkpt lat="51.7317760829" lon="-1.7956427950"><ele>119.34</ele><time>2014-02-26T10:39:26Z</time></trkpt><trkpt lat="51.7317483388" lon="-1.7959051486"><ele>118.38</ele><time>2014-02-26T10:39:42Z</time></trkpt><trkpt lat="51.7317200080" lon="-1.7961578630"><ele>119.82</ele><time>2014-02-26T10:39:57Z</time></trkpt><trkpt lat="51.7317115422" lon="-1.7962645646"><ele>118.38</ele><time>2014-02-26T10:40:04Z</time></trkpt><trkpt lat="51.7316788528" lon="-1.7965375632"><ele>117.90</ele><time>2014-02-26T10:40:20Z</time></trkpt><trkpt lat="51.7316484265" lon="-1.7967880983"><ele>118.86</ele><time>2014-02-26T10:40:36Z</time></trkpt><trkpt lat="51.7315983865" lon="-1.7971438263"><ele>118.86</ele><time>2014-02-26T10:40:55Z</time></trkpt><trkpt lat="51.7315888312" lon="-1.7972574849"><ele>118.86</ele><time>2014-02-26T10:41:02Z</time></trkpt><trkpt lat="51.7315843049" lon="-1.7973022442"><ele>118.86</ele><time>2014-02-26T10:41:05Z</time></trkpt><trkpt lat="51.7315411381" lon="-1.7976198345"><ele>120.30</ele><time>2014-02-26T10:41:23Z</time></trkpt><trkpt lat="51.7315306608" lon="-1.7977562081"><ele>120.30</ele><time>2014-02-26T10:41:32Z</time></trkpt><trkpt lat="51.7315035034" lon="-1.7980049830"><ele>119.82</ele><time>2014-02-26T10:41:48Z</time></trkpt><trkpt lat="51.7314877454" lon="-1.7981489003"><ele>118.38</ele><time>2014-02-26T10:41:56Z</time></trkpt><trkpt lat="51.7314664554" lon="-1.7983805761"><ele>118.38</ele><time>2014-02-26T10:42:12Z</time></trkpt><trkpt lat="51.7314417288" lon="-1.7986269202"><ele>118.86</ele><time>2014-02-26T10:42:27Z</time></trkpt><trkpt lat="51.7314372864" lon="-1.7986967415"><ele>119.82</ele><time>2014-02-26T10:42:31Z</time></trkpt><trkpt lat="51.7314227857" lon="-1.7987896968"><ele>118.38</ele><time>2014-02-26T10:42:37Z</time></trkpt><trkpt lat="51.7314115539" lon="-1.7988768686"><ele>120.78</ele><time>2014-02-26T10:42:44Z</time></trkpt><trkpt lat="51.7314157449" lon="-1.7989321053"><ele>117.42</ele><time>2014-02-26T10:42:54Z</time></trkpt><trkpt lat="51.7314164992" lon="-1.7989336979"><ele>117.42</ele><time>2014-02-26T10:42:55Z</time></trkpt><trkpt lat="51.7314189300" lon="-1.7989421636"><ele>118.86</ele><time>2014-02-26T10:42:57Z</time></trkpt><trkpt lat="51.7313900962" lon="-1.7991761863"><ele>118.38</ele><time>2014-02-26T10:43:12Z</time></trkpt><trkpt lat="51.7313476000" lon="-1.7994864006"><ele>118.38</ele><time>2014-02-26T10:43:29Z</time></trkpt><trkpt lat="51.7313222028" lon="-1.7996327486"><ele>118.38</ele><time>2014-02-26T10:43:38Z</time></trkpt><trkpt lat="51.7313071154" lon="-1.7997762468"><ele>121.74</ele><time>2014-02-26T10:43:47Z</time></trkpt><trkpt lat="51.7312917765" lon="-1.7998702917"><ele>118.86</ele><time>2014-02-26T10:43:52Z</time></trkpt><trkpt lat="51.7312703189" lon="-1.8001352437"><ele>118.86</ele><time>2014-02-26T10:44:09Z</time></trkpt><trkpt lat="51.7312311754" lon="-1.8004137743"><ele>118.86</ele><time>2014-02-26T10:44:24Z</time></trkpt><trkpt lat="51.7311903555" lon="-1.8006899580"><ele>118.86</ele><time>2014-02-26T10:44:40Z</time></trkpt><trkpt lat="51.7311833985" lon="-1.8008218054"><ele>118.86</ele><time>2014-02-26T10:44:49Z</time></trkpt><trkpt lat="51.7311527207" lon="-1.8010808062"><ele>119.34</ele><time>2014-02-26T10:45:05Z</time></trkpt><trkpt lat="51.7311337776" lon="-1.8012887612"><ele>120.30</ele><time>2014-02-26T10:45:23Z</time></trkpt><trkpt lat="51.7311366275" lon="-1.8014068622"><ele>119.82</ele><time>2014-02-26T10:45:38Z</time></trkpt><trkpt lat="51.7311073747" lon="-1.8016839679"><ele>118.86</ele><time>2014-02-26T10:45:53Z</time></trkpt><trkpt lat="51.7310722545" lon="-1.8019757420"><ele>119.34</ele><time>2014-02-26T10:46:09Z</time></trkpt><trkpt lat="51.7310525570" lon="-1.8021570425"><ele>121.26</ele><time>2014-02-26T10:46:19Z</time></trkpt><trkpt lat="51.7310398165" lon="-1.8022388499"><ele>120.30</ele><time>2014-02-26T10:46:24Z</time></trkpt><trkpt lat="51.7310046125" lon="-1.8025235832"><ele>119.82</ele><time>2014-02-26T10:46:41Z</time></trkpt><trkpt lat="51.7309793830" lon="-1.8028156925"><ele>119.34</ele><time>2014-02-26T10:46:59Z</time></trkpt><trkpt lat="51.7309457716" lon="-1.8031658046"><ele>119.82</ele><time>2014-02-26T10:47:19Z</time></trkpt><trkpt lat="51.7309062090" lon="-1.8034598418"><ele>119.82</ele><time>2014-02-26T10:47:37Z</time></trkpt><trkpt lat="51.7308897804" lon="-1.8037732411"><ele>121.26</ele><time>2014-02-26T10:47:58Z</time></trkpt><trkpt lat="51.7308576778" lon="-1.8040671945"><ele>120.78</ele><time>2014-02-26T10:48:16Z</time></trkpt><trkpt lat="51.7308127508" lon="-1.8043311406"><ele>121.74</ele><time>2014-02-26T10:48:30Z</time></trkpt><trkpt lat="51.7307818215" lon="-1.8045738805"><ele>121.26</ele><time>2014-02-26T10:48:47Z</time></trkpt><trkpt lat="51.7307549156" lon="-1.8046660814"><ele>122.22</ele><time>2014-02-26T10:49:06Z</time></trkpt><trkpt lat="51.7306538299" lon="-1.8046221603"><ele>122.71</ele><time>2014-02-26T10:49:25Z</time></trkpt><trkpt lat="51.7306373175" lon="-1.8046131916"><ele>122.22</ele><time>2014-02-26T10:49:27Z</time></trkpt><trkpt lat="51.7305123433" lon="-1.8045558594"><ele>121.74</ele><time>2014-02-26T10:49:44Z</time></trkpt><trkpt lat="51.7305039614" lon="-1.8045551889"><ele>121.74</ele><time>2014-02-26T10:49:45Z</time></trkpt><trkpt lat="51.7303405982" lon="-1.8044976890"><ele>121.26</ele><time>2014-02-26T10:50:04Z</time></trkpt><trkpt lat="51.7301861197" lon="-1.8044427037"><ele>120.78</ele><time>2014-02-26T10:50:21Z</time></trkpt><trkpt lat="51.7300442979" lon="-1.8043774925"><ele>120.30</ele><time>2014-02-26T10:50:36Z</time></trkpt><trkpt lat="51.7298793420" lon="-1.8043569569"><ele>119.34</ele><time>2014-02-26T10:50:54Z</time></trkpt><trkpt lat="51.7297417112" lon="-1.8042864650"><ele>119.34</ele><time>2014-02-26T10:51:09Z</time></trkpt><trkpt lat="51.7296082713" lon="-1.8042518478"><ele>118.38</ele><time>2014-02-26T10:51:22Z</time></trkpt><trkpt lat="51.7295102030" lon="-1.8042078428"><ele>119.34</ele><time>2014-02-26T10:51:33Z</time></trkpt><trkpt lat="51.7293530423" lon="-1.8041855469"><ele>117.90</ele><time>2014-02-26T10:51:49Z</time></trkpt><trkpt lat="51.7291960493" lon="-1.8041548692"><ele>118.38</ele><time>2014-02-26T10:52:07Z</time></trkpt><trkpt lat="51.7291775253" lon="-1.8041463196"><ele>117.90</ele><time>2014-02-26T10:52:09Z</time></trkpt><trkpt lat="51.7290161736" lon="-1.8041239399"><ele>117.90</ele><time>2014-02-26T10:52:24Z</time></trkpt><trkpt lat="51.7288657185" lon="-1.8040913343"><ele>116.94</ele><time>2014-02-26T10:52:40Z</time></trkpt><trkpt lat="51.7287456896" lon="-1.8040423002"><ele>116.46</ele><time>2014-02-26T10:52:54Z</time></trkpt><trkpt lat="51.7285655625" lon="-1.8040018994"><ele>116.94</ele><time>2014-02-26T10:53:11Z</time></trkpt><trkpt lat="51.7285554204" lon="-1.8039971218"><ele>116.46</ele><time>2014-02-26T10:53:12Z</time></trkpt><trkpt lat="51.7284015287" lon="-1.8039257918"><ele>115.98</ele><time>2014-02-26T10:53:28Z</time></trkpt><trkpt lat="51.7282936536" lon="-1.8038869835"><ele>115.50</ele><time>2014-02-26T10:53:39Z</time></trkpt><trkpt lat="51.7281600460" lon="-1.8038372789"><ele>114.53</ele><time>2014-02-26T10:53:53Z</time></trkpt><trkpt lat="51.7280188110" lon="-1.8037423957"><ele>114.53</ele><time>2014-02-26T10:54:08Z</time></trkpt><trkpt lat="51.7278941721" lon="-1.8036831357"><ele>115.01</ele><time>2014-02-26T10:54:22Z</time></trkpt><trkpt lat="51.7278646678" lon="-1.8036615942"><ele>114.53</ele><time>2014-02-26T10:54:25Z</time></trkpt><trkpt lat="51.7277951818" lon="-1.8036296591"><ele>114.53</ele><time>2014-02-26T10:54:32Z</time></trkpt><trkpt lat="51.7275939323" lon="-1.8035533838"><ele>113.57</ele><time>2014-02-26T10:54:50Z</time></trkpt><trkpt lat="51.7275869753" lon="-1.8035437446"><ele>113.57</ele><time>2014-02-26T10:54:51Z</time></trkpt><trkpt lat="51.7274532001" lon="-1.8034403119"><ele>112.61</ele><time>2014-02-26T10:55:06Z</time></trkpt><trkpt lat="51.7274290603" lon="-1.8033862486"><ele>113.09</ele><time>2014-02-26T10:55:20Z</time></trkpt><trkpt lat="51.7274350952" lon="-1.8032301776"><ele>112.13</ele><time>2014-02-26T10:55:32Z</time></trkpt><trkpt lat="51.7274567205" lon="-1.8030433450"><ele>112.13</ele><time>2014-02-26T10:55:45Z</time></trkpt><trkpt lat="51.7274544574" lon="-1.8029802293"><ele>112.13</ele><time>2014-02-26T10:55:58Z</time></trkpt><trkpt lat="51.7274594028" lon="-1.8028925546"><ele>111.65</ele><time>2014-02-26T10:56:15Z</time></trkpt><trkpt lat="51.7274850514" lon="-1.8027885351"><ele>111.65</ele><time>2014-02-26T10:56:22Z</time></trkpt><trkpt lat="51.7275045812" lon="-1.8026731163"><ele>111.17</ele><time>2014-02-26T10:56:29Z</time></trkpt><trkpt lat="51.7275588121" lon="-1.8024903070"><ele>112.13</ele><time>2014-02-26T10:56:42Z</time></trkpt><trkpt lat="51.7275838740" lon="-1.8023770675"><ele>111.65</ele><time>2014-02-26T10:56:49Z</time></trkpt><trkpt lat="51.7276250292" lon="-1.8021187373"><ele>111.17</ele><time>2014-02-26T10:57:04Z</time></trkpt><trkpt lat="51.7276669387" lon="-1.8019204214"><ele>111.17</ele><time>2014-02-26T10:57:18Z</time></trkpt><trkpt lat="51.7277085129" lon="-1.8016949482"><ele>111.17</ele><time>2014-02-26T10:57:33Z</time></trkpt><trkpt lat="51.7277282104" lon="-1.8015937787"><ele>110.21</ele><time>2014-02-26T10:57:39Z</time></trkpt><trkpt lat="51.7277347483" lon="-1.8015467562"><ele>110.69</ele><time>2014-02-26T10:57:42Z</time></trkpt><trkpt lat="51.7277896497" lon="-1.8013002444"><ele>110.21</ele><time>2014-02-26T10:58:00Z</time></trkpt><trkpt lat="51.7278032284" lon="-1.8012528028"><ele>110.69</ele><time>2014-02-26T10:58:03Z</time></trkpt><trkpt lat="51.7278532684" lon="-1.8010169361"><ele>109.25</ele><time>2014-02-26T10:58:18Z</time></trkpt><trkpt lat="51.7278997041" lon="-1.8007687479"><ele>108.77</ele><time>2014-02-26T10:58:33Z</time></trkpt><trkpt lat="51.7279384285" lon="-1.8005680013"><ele>107.81</ele><time>2014-02-26T10:58:44Z</time></trkpt><trkpt lat="51.7279723752" lon="-1.8002897222"><ele>106.36</ele><time>2014-02-26T10:59:00Z</time></trkpt><trkpt lat="51.7280422803" lon="-1.8000274524"><ele>106.36</ele><time>2014-02-26T10:59:16Z</time></trkpt><trkpt lat="51.7280890513" lon="-1.7997681163"><ele>106.36</ele><time>2014-02-26T10:59:32Z</time></trkpt><trkpt lat="51.7281293683" lon="-1.7995502707"><ele>106.84</ele><time>2014-02-26T10:59:47Z</time></trkpt><trkpt lat="51.7281759717" lon="-1.7992957123"><ele>106.84</ele><time>2014-02-26T11:00:04Z</time></trkpt><trkpt lat="51.7282424401" lon="-1.7990302574"><ele>106.84</ele><time>2014-02-26T11:00:21Z</time></trkpt><trkpt lat="51.7282504030" lon="-1.7989985738"><ele>106.36</ele><time>2014-02-26T11:00:23Z</time></trkpt><trkpt lat="51.7282866966" lon="-1.7987518944"><ele>106.84</ele><time>2014-02-26T11:00:39Z</time></trkpt><trkpt lat="51.7283328809" lon="-1.7985161114"><ele>106.36</ele><time>2014-02-26T11:00:55Z</time></trkpt><trkpt lat="51.7283502314" lon="-1.7983991839"><ele>105.88</ele><time>2014-02-26T11:01:11Z</time></trkpt><trkpt lat="51.7283840943" lon="-1.7982649058"><ele>106.36</ele><time>2014-02-26T11:01:23Z</time></trkpt><trkpt lat="51.7284361459" lon="-1.7980164662"><ele>105.88</ele><time>2014-02-26T11:01:39Z</time></trkpt><trkpt lat="51.7284583580" lon="-1.7979229242"><ele>107.32</ele><time>2014-02-26T11:01:53Z</time></trkpt><trkpt lat="51.7284550052" lon="-1.7979075015"><ele>106.84</ele><time>2014-02-26T11:02:12Z</time></trkpt><trkpt lat="51.7284587771" lon="-1.7978987843"><ele>106.84</ele><time>2014-02-26T11:02:15Z</time></trkpt><trkpt lat="51.7284697574" lon="-1.7978342436"><ele>107.32</ele><time>2014-02-26T11:02:19Z</time></trkpt><trkpt lat="51.7285254970" lon="-1.7975786794"><ele>107.81</ele><time>2014-02-26T11:02:35Z</time></trkpt><trkpt lat="51.7285623774" lon="-1.7974061798"><ele>108.77</ele><time>2014-02-26T11:02:48Z</time></trkpt><trkpt lat="51.7286130879" lon="-1.7971797008"><ele>109.73</ele><time>2014-02-26T11:03:02Z</time></trkpt><trkpt lat="51.7286581825" lon="-1.7969243880"><ele>109.25</ele><time>2014-02-26T11:03:17Z</time></trkpt><trkpt lat="51.7286894470" lon="-1.7966592684"><ele>110.69</ele><time>2014-02-26T11:03:32Z</time></trkpt><trkpt lat="51.7287032772" lon="-1.7965845019"><ele>109.73</ele><time>2014-02-26T11:03:40Z</time></trkpt><trkpt lat="51.7287410796" lon="-1.7964358069"><ele>109.73</ele><time>2014-02-26T11:03:49Z</time></trkpt><trkpt lat="51.7287509702" lon="-1.7963505629"><ele>108.77</ele><time>2014-02-26T11:03:57Z</time></trkpt><trkpt lat="51.7287837435" lon="-1.7962155305"><ele>109.25</ele><time>2014-02-26T11:04:10Z</time></trkpt><trkpt lat="51.7288405728" lon="-1.7959444597"><ele>109.25</ele><time>2014-02-26T11:04:26Z</time></trkpt><trkpt lat="51.7289066222" lon="-1.7956368439"><ele>109.25</ele><time>2014-02-26T11:04:45Z</time></trkpt><trkpt lat="51.7289614398" lon="-1.7953655217"><ele>109.25</ele><time>2014-02-26T11:05:02Z</time></trkpt><trkpt lat="51.7290184367" lon="-1.7951066885"><ele>108.29</ele><time>2014-02-26T11:05:18Z</time></trkpt><trkpt lat="51.7290444206" lon="-1.7949868273"><ele>108.29</ele><time>2014-02-26T11:05:31Z</time></trkpt><trkpt lat="51.7290067859" lon="-1.7949376255"><ele>108.29</ele><time>2014-02-26T11:05:46Z</time></trkpt><trkpt lat="51.7288793810" lon="-1.7949501146"><ele>108.77</ele><time>2014-02-26T11:06:02Z</time></trkpt><trkpt lat="51.7288699932" lon="-1.7949542217"><ele>109.25</ele><time>2014-02-26T11:06:03Z</time></trkpt><trkpt lat="51.7287808936" lon="-1.7949488573"><ele>109.73</ele><time>2014-02-26T11:06:16Z</time></trkpt><trkpt lat="51.7286369763" lon="-1.7949755955"><ele>110.21</ele><time>2014-02-26T11:06:31Z</time></trkpt><trkpt lat="51.7285315320" lon="-1.7949830554"><ele>110.21</ele><time>2014-02-26T11:06:46Z</time></trkpt><trkpt lat="51.7285013571" lon="-1.7949683871"><ele>110.21</ele><time>2014-02-26T11:06:49Z</time></trkpt><trkpt lat="51.7283459567" lon="-1.7949493602"><ele>109.25</ele><time>2014-02-26T11:07:04Z</time></trkpt><trkpt lat="51.7283351440" lon="-1.7949509528"><ele>109.73</ele><time>2014-02-26T11:07:05Z</time></trkpt><trkpt lat="51.7283027899" lon="-1.7949478514"><ele>109.25</ele><time>2014-02-26T11:07:08Z</time></trkpt><trkpt lat="51.7281439528" lon="-1.7949266452"><ele>109.25</ele><time>2014-02-26T11:07:22Z</time></trkpt><trkpt lat="51.7281024624" lon="-1.7949161679"><ele>109.25</ele><time>2014-02-26T11:07:29Z</time></trkpt><trkpt lat="51.7280696053" lon="-1.7949124798"><ele>109.73</ele><time>2014-02-26T11:07:32Z</time></trkpt><trkpt lat="51.7280383408" lon="-1.7949028406"><ele>108.77</ele><time>2014-02-26T11:07:35Z</time></trkpt><trkpt lat="51.7278943397" lon="-1.7949009128"><ele>108.77</ele><time>2014-02-26T11:07:50Z</time></trkpt><trkpt lat="51.7277585529" lon="-1.7948819697"><ele>108.29</ele><time>2014-02-26T11:08:03Z</time></trkpt><trkpt lat="51.7275591474" lon="-1.7948293313"><ele>107.32</ele><time>2014-02-26T11:08:24Z</time></trkpt><trkpt lat="51.7273717280" lon="-1.7948017549"><ele>107.32</ele><time>2014-02-26T11:08:44Z</time></trkpt><trkpt lat="51.7271314189" lon="-1.7947595101"><ele>106.36</ele><time>2014-02-26T11:09:04Z</time></trkpt><trkpt lat="51.7268816382" lon="-1.7946758587"><ele>106.36</ele><time>2014-02-26T11:09:26Z</time></trkpt><trkpt lat="51.7266481183" lon="-1.7946124915"><ele>106.36</ele><time>2014-02-26T11:09:48Z</time></trkpt><trkpt lat="51.7264632136" lon="-1.7945663072"><ele>104.92</ele><time>2014-02-26T11:10:06Z</time></trkpt><trkpt lat="51.7262207251" lon="-1.7944968212"><ele>103.96</ele><time>2014-02-26T11:10:26Z</time></trkpt><trkpt lat="51.7260395922" lon="-1.7944109906"><ele>102.52</ele><time>2014-02-26T11:10:43Z</time></trkpt><trkpt lat="51.7258382589" lon="-1.7943255790"><ele>101.08</ele><time>2014-02-26T11:11:02Z</time></trkpt><trkpt lat="51.7256489117" lon="-1.7942415923"><ele>99.63</ele><time>2014-02-26T11:11:19Z</time></trkpt><trkpt lat="51.7254536971" lon="-1.7941522412"><ele>97.71</ele><time>2014-02-26T11:11:37Z</time></trkpt><trkpt lat="51.7253371887" lon="-1.7940881196"><ele>96.75</ele><time>2014-02-26T11:11:49Z</time></trkpt><trkpt lat="51.7252485082" lon="-1.7939790711"><ele>96.27</ele><time>2014-02-26T11:12:06Z</time></trkpt><trkpt lat="51.7252523638" lon="-1.7939492315"><ele>95.79</ele><time>2014-02-26T11:12:21Z</time></trkpt><trkpt lat="51.7252459936" lon="-1.7939142790"><ele>96.27</ele><time>2014-02-26T11:12:41Z</time></trkpt><trkpt lat="51.7252646852" lon="-1.7938794941"><ele>95.31</ele><time>2014-02-26T11:12:58Z</time></trkpt><trkpt lat="51.7252835445" lon="-1.7938520014"><ele>95.31</ele><time>2014-02-26T11:13:15Z</time></trkpt><trkpt lat="51.7252834607" lon="-1.7938275263"><ele>92.42</ele><time>2014-02-26T11:13:31Z</time></trkpt><trkpt lat="51.7252693791" lon="-1.7937418632"><ele>93.39</ele><time>2014-02-26T11:13:52Z</time></trkpt><trkpt lat="51.7252459936" lon="-1.7936445493"><ele>92.90</ele><time>2014-02-26T11:14:11Z</time></trkpt><trkpt lat="51.7252320796" lon="-1.7936442979"><ele>92.90</ele><time>2014-02-26T11:14:36Z</time></trkpt><trkpt lat="51.7252283916" lon="-1.7936436273"><ele>93.39</ele><time>2014-02-26T11:15:04Z</time></trkpt><trkpt lat="51.7252288945" lon="-1.7936412804"><ele>92.90</ele><time>2014-02-26T11:15:34Z</time></trkpt><trkpt lat="51.7252226081" lon="-1.7936497461"><ele>93.39</ele><time>2014-02-26T11:16:02Z</time></trkpt><trkpt lat="51.7252226081" lon="-1.7936547752"><ele>92.90</ele><time>2014-02-26T11:16:32Z</time></trkpt><trkpt lat="51.7252172437" lon="-1.7936572060"><ele>93.87</ele><time>2014-02-26T11:17:00Z</time></trkpt><trkpt lat="51.7252088618" lon="-1.7936576251"><ele>99.15</ele><time>2014-02-26T11:17:21Z</time></trkpt><trkpt lat="51.7252086103" lon="-1.7936592177"><ele>93.39</ele><time>2014-02-26T11:17:22Z</time></trkpt><trkpt lat="51.7252200097" lon="-1.7936619837"><ele>93.87</ele><time>2014-02-26T11:17:42Z</time></trkpt><trkpt lat="51.7252060119" lon="-1.7936127819"><ele>93.87</ele><time>2014-02-26T11:18:05Z</time></trkpt><trkpt lat="51.7252350133" lon="-1.7936714552"><ele>94.35</ele><time>2014-02-26T11:18:30Z</time></trkpt><trkpt lat="51.7252468318" lon="-1.7936523445"><ele>95.31</ele><time>2014-02-26T11:18:44Z</time></trkpt><trkpt lat="51.7252477538" lon="-1.7936595529"><ele>95.31</ele><time>2014-02-26T11:19:05Z</time></trkpt><trkpt lat="51.7252504360" lon="-1.7936754785"><ele>93.87</ele><time>2014-02-26T11:19:25Z</time></trkpt><trkpt lat="51.7252507713" lon="-1.7936793342"><ele>94.83</ele><time>2014-02-26T11:19:46Z</time></trkpt><trkpt lat="51.7252294812" lon="-1.7936902307"><ele>93.87</ele><time>2014-02-26T11:20:00Z</time></trkpt><trkpt lat="51.7252454069" lon="-1.7936632410"><ele>93.87</ele><time>2014-02-26T11:20:22Z</time></trkpt><trkpt lat="51.7252416350" lon="-1.7936293781"><ele>93.87</ele><time>2014-02-26T11:20:41Z</time></trkpt><trkpt lat="51.7252323311" lon="-1.7936458066"><ele>94.35</ele><time>2014-02-26T11:21:06Z</time></trkpt><trkpt lat="51.7252301518" lon="-1.7936498299"><ele>94.35</ele><time>2014-02-26T11:21:31Z</time></trkpt><trkpt lat="51.7252195906" lon="-1.7936598882"><ele>94.35</ele><time>2014-02-26T11:22:00Z</time></trkpt><trkpt lat="51.7252151482" lon="-1.7936672643"><ele>94.83</ele><time>2014-02-26T11:22:28Z</time></trkpt><trkpt lat="51.7252176628" lon="-1.7936888896"><ele>94.83</ele><time>2014-02-26T11:22:55Z</time></trkpt><trkpt lat="51.7252993025" lon="-1.7936111894"><ele>95.31</ele><time>2014-02-26T11:23:14Z</time></trkpt><trkpt lat="51.7253493425" lon="-1.7933569662"><ele>94.35</ele><time>2014-02-26T11:23:31Z</time></trkpt><trkpt lat="51.7253964487" lon="-1.7931383662"><ele>93.87</ele><time>2014-02-26T11:23:45Z</time></trkpt><trkpt lat="51.7254228517" lon="-1.7929840554"><ele>93.39</ele><time>2014-02-26T11:23:58Z</time></trkpt><trkpt lat="51.7254821118" lon="-1.7927999888"><ele>93.39</ele><time>2014-02-26T11:24:14Z</time></trkpt><trkpt lat="51.7255131248" lon="-1.7927144933"><ele>92.90</ele><time>2014-02-26T11:24:28Z</time></trkpt><trkpt lat="51.7255591415" lon="-1.7925124057"><ele>92.90</ele><time>2014-02-26T11:24:43Z</time></trkpt><trkpt lat="51.7256171443" lon="-1.7923288420"><ele>92.42</ele><time>2014-02-26T11:24:58Z</time></trkpt><trkpt lat="51.7256862111" lon="-1.7920624651"><ele>91.46</ele><time>2014-02-26T11:25:12Z</time></trkpt><trkpt lat="51.7257163860" lon="-1.7919193022"><ele>90.50</ele><time>2014-02-26T11:25:26Z</time></trkpt><trkpt lat="51.7257253546" lon="-1.7917930707"><ele>88.58</ele><time>2014-02-26T11:25:42Z</time></trkpt><trkpt lat="51.7257118598" lon="-1.7914808448"><ele>87.62</ele><time>2014-02-26T11:25:58Z</time></trkpt><trkpt lat="51.7257199064" lon="-1.7912313994"><ele>87.14</ele><time>2014-02-26T11:26:14Z</time></trkpt><trkpt lat="51.7257145420" lon="-1.7911698762"><ele>86.66</ele><time>2014-02-26T11:26:17Z</time></trkpt><trkpt lat="51.7257029749" lon="-1.7909696326"><ele>86.66</ele><time>2014-02-26T11:26:32Z</time></trkpt><trkpt lat="51.7257146258" lon="-1.7909214366"><ele>85.69</ele><time>2014-02-26T11:26:46Z</time></trkpt><trkpt lat="51.7257458903" lon="-1.7908342648"><ele>85.21</ele><time>2014-02-26T11:27:01Z</time></trkpt><trkpt lat="51.7257653363" lon="-1.7906837258"><ele>85.21</ele><time>2014-02-26T11:27:15Z</time></trkpt><trkpt lat="51.7257743049" lon="-1.7904731724"><ele>85.21</ele><time>2014-02-26T11:27:31Z</time></trkpt><trkpt lat="51.7258084193" lon="-1.7902512196"><ele>84.73</ele><time>2014-02-26T11:27:47Z</time></trkpt><trkpt lat="51.7259167973" lon="-1.7900120001"><ele>85.21</ele><time>2014-02-26T11:28:02Z</time></trkpt><trkpt lat="51.7259789910" lon="-1.7896735389"><ele>86.18</ele><time>2014-02-26T11:28:17Z</time></trkpt><trkpt lat="51.7259660829" lon="-1.7893763166"><ele>85.69</ele><time>2014-02-26T11:28:29Z</time></trkpt><trkpt lat="51.7260077409" lon="-1.7892067507"><ele>86.18</ele><time>2014-02-26T11:28:43Z</time></trkpt><trkpt lat="51.7260235827" lon="-1.7891686130"><ele>86.18</ele><time>2014-02-26T11:28:46Z</time></trkpt><trkpt lat="51.7260675877" lon="-1.7889584787"><ele>86.66</ele><time>2014-02-26T11:29:01Z</time></trkpt><trkpt lat="51.7261015344" lon="-1.7887910083"><ele>86.66</ele><time>2014-02-26T11:29:15Z</time></trkpt><trkpt lat="51.7261372413" lon="-1.7885592487"><ele>86.66</ele><time>2014-02-26T11:29:31Z</time></trkpt><trkpt lat="51.7261793185" lon="-1.7883428279"><ele>87.14</ele><time>2014-02-26T11:29:46Z</time></trkpt><trkpt lat="51.7262057215" lon="-1.7882134952"><ele>86.66</ele><time>2014-02-26T11:29:55Z</time></trkpt><trkpt lat="51.7262222338" lon="-1.7881735135"><ele>86.66</ele><time>2014-02-26T11:29:58Z</time></trkpt><trkpt lat="51.7262581084" lon="-1.7879552487"><ele>86.18</ele><time>2014-02-26T11:30:13Z</time></trkpt><trkpt lat="51.7262650654" lon="-1.7879150156"><ele>86.66</ele><time>2014-02-26T11:30:16Z</time></trkpt><trkpt lat="51.7262721062" lon="-1.7878800631"><ele>87.14</ele><time>2014-02-26T11:30:18Z</time></trkpt><trkpt lat="51.7263089027" lon="-1.7876774725"><ele>87.14</ele><time>2014-02-26T11:30:31Z</time></trkpt><trkpt lat="51.7263513152" lon="-1.7874627281"><ele>87.62</ele><time>2014-02-26T11:30:46Z</time></trkpt><trkpt lat="51.7263731081" lon="-1.7873940803"><ele>87.62</ele><time>2014-02-26T11:31:00Z</time></trkpt><trkpt lat="51.7263975833" lon="-1.7872498278"><ele>87.62</ele><time>2014-02-26T11:31:15Z</time></trkpt><trkpt lat="51.7264347151" lon="-1.7870494165"><ele>88.10</ele><time>2014-02-26T11:31:29Z</time></trkpt><trkpt lat="51.7264144309" lon="-1.7870070878"><ele>87.62</ele><time>2014-02-26T11:31:45Z</time></trkpt><trkpt lat="51.7264088988" lon="-1.7870085128"><ele>87.62</ele><time>2014-02-26T11:32:10Z</time></trkpt><trkpt lat="51.7264048755" lon="-1.7870036513"><ele>87.62</ele><time>2014-02-26T11:32:32Z</time></trkpt><trkpt lat="51.7264140956" lon="-1.7869805172"><ele>88.10</ele><time>2014-02-26T11:32:46Z</time></trkpt><trkpt lat="51.7264965735" lon="-1.7867281381"><ele>88.10</ele><time>2014-02-26T11:33:01Z</time></trkpt><trkpt lat="51.7266044486" lon="-1.7865049280"><ele>88.58</ele><time>2014-02-26T11:33:15Z</time></trkpt><trkpt lat="51.7266592663" lon="-1.7864153255"><ele>88.10</ele><time>2014-02-26T11:33:22Z</time></trkpt><trkpt lat="51.7268051114" lon="-1.7862853222"><ele>87.14</ele><time>2014-02-26T11:33:38Z</time></trkpt><trkpt lat="51.7269664630" lon="-1.7862801254"><ele>88.10</ele><time>2014-02-26T11:33:54Z</time></trkpt><trkpt lat="51.7271162476" lon="-1.7863303330"><ele>88.58</ele><time>2014-02-26T11:34:14Z</time></trkpt><trkpt lat="51.7272781860" lon="-1.7863986455"><ele>88.58</ele><time>2014-02-26T11:34:26Z</time></trkpt><trkpt lat="51.7274176609" lon="-1.7864745855"><ele>89.06</ele><time>2014-02-26T11:34:40Z</time></trkpt><trkpt lat="51.7274816148" lon="-1.7865200154"><ele>89.06</ele><time>2014-02-26T11:34:47Z</time></trkpt><trkpt lat="51.7275846284" lon="-1.7866032477"><ele>88.10</ele><time>2014-02-26T11:35:00Z</time></trkpt><trkpt lat="51.7277368437" lon="-1.7866935208"><ele>89.06</ele><time>2014-02-26T11:35:14Z</time></trkpt><trkpt lat="51.7278850358" lon="-1.7868141364"><ele>89.54</ele><time>2014-02-26T11:35:32Z</time></trkpt><trkpt lat="51.7279821821" lon="-1.7869029008"><ele>90.02</ele><time>2014-02-26T11:35:44Z</time></trkpt><trkpt lat="51.7280962598" lon="-1.7869930062"><ele>90.02</ele><time>2014-02-26T11:35:57Z</time></trkpt><trkpt lat="51.7281864490" lon="-1.7870187387"><ele>90.98</ele><time>2014-02-26T11:36:12Z</time></trkpt><trkpt lat="51.7282170430" lon="-1.7869400326"><ele>88.58</ele><time>2014-02-26T11:36:27Z</time></trkpt><trkpt lat="51.7282257602" lon="-1.7869365122"><ele>88.10</ele><time>2014-02-26T11:36:42Z</time></trkpt><trkpt lat="51.7282387521" lon="-1.7869604006"><ele>87.62</ele><time>2014-02-26T11:36:58Z</time></trkpt><trkpt lat="51.7282800749" lon="-1.7870444711"><ele>88.10</ele><time>2014-02-26T11:37:10Z</time></trkpt><trkpt lat="51.7283596192" lon="-1.7871078383"><ele>87.14</ele><time>2014-02-26T11:37:25Z</time></trkpt><trkpt lat="51.7283987626" lon="-1.7871110234"><ele>86.66</ele><time>2014-02-26T11:37:39Z</time></trkpt><trkpt lat="51.7284701765" lon="-1.7871310562"><ele>86.18</ele><time>2014-02-26T11:37:59Z</time></trkpt><trkpt lat="51.7285823263" lon="-1.7872102652"><ele>85.69</ele><time>2014-02-26T11:38:13Z</time></trkpt><trkpt lat="51.7286548298" lon="-1.7872446310"><ele>85.69</ele><time>2014-02-26T11:38:26Z</time></trkpt><trkpt lat="51.7288098950" lon="-1.7873524223"><ele>85.21</ele><time>2014-02-26T11:38:42Z</time></trkpt><trkpt lat="51.7289323546" lon="-1.7874035519"><ele>85.69</ele><time>2014-02-26T11:38:56Z</time></trkpt><trkpt lat="51.7290654592" lon="-1.7874800786"><ele>85.69</ele><time>2014-02-26T11:39:13Z</time></trkpt><trkpt lat="51.7291263957" lon="-1.7875312921"><ele>85.69</ele><time>2014-02-26T11:39:27Z</time></trkpt><trkpt lat="51.7291653715" lon="-1.7875517439"><ele>85.69</ele><time>2014-02-26T11:39:42Z</time></trkpt><trkpt lat="51.7291795369" lon="-1.7875654902"><ele>85.21</ele><time>2014-02-26T11:39:58Z</time></trkpt><trkpt lat="51.7292101309" lon="-1.7875994369"><ele>85.21</ele><time>2014-02-26T11:40:17Z</time></trkpt><trkpt lat="51.7292292416" lon="-1.7876291089"><ele>85.21</ele><time>2014-02-26T11:40:36Z</time></trkpt><trkpt lat="51.7292801198" lon="-1.7876478843"><ele>85.69</ele><time>2014-02-26T11:40:56Z</time></trkpt><trkpt lat="51.7292936146" lon="-1.7876540869"><ele>85.21</ele><time>2014-02-26T11:41:15Z</time></trkpt><trkpt lat="51.7293088697" lon="-1.7876806576"><ele>85.21</ele><time>2014-02-26T11:41:29Z</time></trkpt><trkpt lat="51.7293537129" lon="-1.7876773886"><ele>85.69</ele><time>2014-02-26T11:41:49Z</time></trkpt><trkpt lat="51.7293628491" lon="-1.7876808252"><ele>85.69</ele><time>2014-02-26T11:42:07Z</time></trkpt><trkpt lat="51.7293745838" lon="-1.7876985949"><ele>85.69</ele><time>2014-02-26T11:42:27Z</time></trkpt><trkpt lat="51.7293740809" lon="-1.7877104972"><ele>85.69</ele><time>2014-02-26T11:42:57Z</time></trkpt><trkpt lat="51.7293785233" lon="-1.7877281830"><ele>86.18</ele><time>2014-02-26T11:43:22Z</time></trkpt><trkpt lat="51.7294345982" lon="-1.7878469545"><ele>86.18</ele><time>2014-02-26T11:43:37Z</time></trkpt><trkpt lat="51.7294826265" lon="-1.7879115790"><ele>86.18</ele><time>2014-02-26T11:43:52Z</time></trkpt><trkpt lat="51.7295387015" lon="-1.7880607769"><ele>84.73</ele><time>2014-02-26T11:44:03Z</time></trkpt><trkpt lat="51.7296320759" lon="-1.7882467713"><ele>85.69</ele><time>2014-02-26T11:44:16Z</time></trkpt><trkpt lat="51.7296899948" lon="-1.7883414030"><ele>85.21</ele><time>2014-02-26T11:44:29Z</time></trkpt><trkpt lat="51.7297330778" lon="-1.7884820513"><ele>86.18</ele><time>2014-02-26T11:44:46Z</time></trkpt><trkpt lat="51.7298002169" lon="-1.7886221129"><ele>86.18</ele><time>2014-02-26T11:45:00Z</time></trkpt><trkpt lat="51.7298771627" lon="-1.7887529545"><ele>85.69</ele><time>2014-02-26T11:45:14Z</time></trkpt><trkpt lat="51.7299412005" lon="-1.7888402939"><ele>86.18</ele><time>2014-02-26T11:45:28Z</time></trkpt><trkpt lat="51.7300315574" lon="-1.7888889089"><ele>85.69</ele><time>2014-02-26T11:45:41Z</time></trkpt><trkpt lat="51.7300910689" lon="-1.7889398709"><ele>86.18</ele><time>2014-02-26T11:45:53Z</time></trkpt><trkpt lat="51.7301895563" lon="-1.7890260369"><ele>85.69</ele><time>2014-02-26T11:46:08Z</time></trkpt><trkpt lat="51.7302167974" lon="-1.7890722211"><ele>86.18</ele><time>2014-02-26T11:46:21Z</time></trkpt><trkpt lat="51.7302522529" lon="-1.7891213391"><ele>85.69</ele><time>2014-02-26T11:46:35Z</time></trkpt><trkpt lat="51.7302773148" lon="-1.7891644221"><ele>86.18</ele><time>2014-02-26T11:46:52Z</time></trkpt><trkpt lat="51.7303687613" lon="-1.7892165575"><ele>85.69</ele><time>2014-02-26T11:47:07Z</time></trkpt><trkpt lat="51.7305120081" lon="-1.7893144581"><ele>86.18</ele><time>2014-02-26T11:47:19Z</time></trkpt><trkpt lat="51.7305705976" lon="-1.7893451359"><ele>85.69</ele><time>2014-02-26T11:47:31Z</time></trkpt><trkpt lat="51.7306548357" lon="-1.7893957626"><ele>86.18</ele><time>2014-02-26T11:47:45Z</time></trkpt><trkpt lat="51.7308243178" lon="-1.7894708645"><ele>85.69</ele><time>2014-02-26T11:48:00Z</time></trkpt><trkpt lat="51.7309097294" lon="-1.7894976027"><ele>85.69</ele><time>2014-02-26T11:48:14Z</time></trkpt><trkpt lat="51.7309601884" lon="-1.7895124387"><ele>85.69</ele><time>2014-02-26T11:48:29Z</time></trkpt><trkpt lat="51.7310492042" lon="-1.7895403504"><ele>85.69</ele><time>2014-02-26T11:48:40Z</time></trkpt><trkpt lat="51.7311621923" lon="-1.7895667534"><ele>86.18</ele><time>2014-02-26T11:48:51Z</time></trkpt><trkpt lat="51.7312372942" lon="-1.7895996943"><ele>86.18</ele><time>2014-02-26T11:49:04Z</time></trkpt><trkpt lat="51.7312454246" lon="-1.7896004487"><ele>85.69</ele><time>2014-02-26T11:49:07Z</time></trkpt><trkpt lat="51.7313157488" lon="-1.7896365747"><ele>86.66</ele><time>2014-02-26T11:49:18Z</time></trkpt><trkpt lat="51.7313642800" lon="-1.7896338925"><ele>87.62</ele><time>2014-02-26T11:49:30Z</time></trkpt><trkpt lat="51.7314123921" lon="-1.7896571103"><ele>86.66</ele><time>2014-02-26T11:49:43Z</time></trkpt><trkpt lat="51.7315053474" lon="-1.7896550149"><ele>86.66</ele><time>2014-02-26T11:49:56Z</time></trkpt><trkpt lat="51.7315588240" lon="-1.7896695994"><ele>86.66</ele><time>2014-02-26T11:50:00Z</time></trkpt><trkpt lat="51.7317138053" lon="-1.7896894645"><ele>86.66</ele><time>2014-02-26T11:50:12Z</time></trkpt><trkpt lat="51.7318755761" lon="-1.7896897998"><ele>86.66</ele><time>2014-02-26T11:50:27Z</time></trkpt><trkpt lat="51.7319522705" lon="-1.7896678392"><ele>86.66</ele><time>2014-02-26T11:50:40Z</time></trkpt><trkpt lat="51.7320278753" lon="-1.7896390893"><ele>87.14</ele><time>2014-02-26T11:50:49Z</time></trkpt><trkpt lat="51.7320935056" lon="-1.7896244209"><ele>86.66</ele><time>2014-02-26T11:51:04Z</time></trkpt><trkpt lat="51.7322158813" lon="-1.7895744648"><ele>86.66</ele><time>2014-02-26T11:51:22Z</time></trkpt><trkpt lat="51.7323300429" lon="-1.7895879596"><ele>87.62</ele><time>2014-02-26T11:51:39Z</time></trkpt><trkpt lat="51.7325262632" lon="-1.7896131054"><ele>87.62</ele><time>2014-02-26T11:51:59Z</time></trkpt><trkpt lat="51.7325504031" lon="-1.7896172963"><ele>88.10</ele><time>2014-02-26T11:52:15Z</time></trkpt><trkpt lat="51.7326213140" lon="-1.7895867024"><ele>88.10</ele><time>2014-02-26T11:52:32Z</time></trkpt><trkpt lat="51.7326881178" lon="-1.7895674240"><ele>89.06</ele><time>2014-02-26T11:52:47Z</time></trkpt><trkpt lat="51.7328312807" lon="-1.7894670926"><ele>88.58</ele><time>2014-02-26T11:53:05Z</time></trkpt><trkpt lat="51.7329890281" lon="-1.7893899791"><ele>88.10</ele><time>2014-02-26T11:53:17Z</time></trkpt><trkpt lat="51.7331896070" lon="-1.7892509233"><ele>87.62</ele><time>2014-02-26T11:53:34Z</time></trkpt><trkpt lat="51.7333419062" lon="-1.7891502567"><ele>88.10</ele><time>2014-02-26T11:53:50Z</time></trkpt><trkpt lat="51.7334499490" lon="-1.7890506797"><ele>88.58</ele><time>2014-02-26T11:54:07Z</time></trkpt><trkpt lat="51.7335025035" lon="-1.7890264560"><ele>89.06</ele><time>2014-02-26T11:54:20Z</time></trkpt><trkpt lat="51.7335616797" lon="-1.7889852170"><ele>89.54</ele><time>2014-02-26T11:54:36Z</time></trkpt><trkpt lat="51.7336233705" lon="-1.7888925970"><ele>89.54</ele><time>2014-02-26T11:54:53Z</time></trkpt><trkpt lat="51.7337404657" lon="-1.7887666170"><ele>90.50</ele><time>2014-02-26T11:55:11Z</time></trkpt><trkpt lat="51.7338147294" lon="-1.7887019087"><ele>89.06</ele><time>2014-02-26T11:55:19Z</time></trkpt><trkpt lat="51.7338198423" lon="-1.7886915151"><ele>90.02</ele><time>2014-02-26T11:55:21Z</time></trkpt><trkpt lat="51.7339538690" lon="-1.7885693908"><ele>90.02</ele><time>2014-02-26T11:55:35Z</time></trkpt><trkpt lat="51.7340412084" lon="-1.7884574924"><ele>90.50</ele><time>2014-02-26T11:55:43Z</time></trkpt><trkpt lat="51.7341091018" lon="-1.7883175984"><ele>89.54</ele><time>2014-02-26T11:55:54Z</time></trkpt><trkpt lat="51.7341748159" lon="-1.7882077117"><ele>90.50</ele><time>2014-02-26T11:56:03Z</time></trkpt><trkpt lat="51.7342440505" lon="-1.7880564183"><ele>89.54</ele><time>2014-02-26T11:56:17Z</time></trkpt><trkpt lat="51.7343134526" lon="-1.7879670672"><ele>89.06</ele><time>2014-02-26T11:56:35Z</time></trkpt><trkpt lat="51.7343312223" lon="-1.7878656462"><ele>89.06</ele><time>2014-02-26T11:56:52Z</time></trkpt><trkpt lat="51.7343567032" lon="-1.7878008541"><ele>89.06</ele><time>2014-02-26T11:57:09Z</time></trkpt><trkpt lat="51.7343886383" lon="-1.7877451982"><ele>89.06</ele><time>2014-02-26T11:57:22Z</time></trkpt><trkpt lat="51.7345477268" lon="-1.7875456251"><ele>88.58</ele><time>2014-02-26T11:57:40Z</time></trkpt><trkpt lat="51.7346631456" lon="-1.7873199843"><ele>89.06</ele><time>2014-02-26T11:57:55Z</time></trkpt><trkpt lat="51.7347001098" lon="-1.7872197367"><ele>89.06</ele><time>2014-02-26T11:58:08Z</time></trkpt><trkpt lat="51.7347430252" lon="-1.7871547770"><ele>89.06</ele><time>2014-02-26T11:58:15Z</time></trkpt><trkpt lat="51.7348248325" lon="-1.7869728897"><ele>90.02</ele><time>2014-02-26T11:58:30Z</time></trkpt><trkpt lat="51.7348625511" lon="-1.7868665233"><ele>90.98</ele><time>2014-02-26T11:58:41Z</time></trkpt><trkpt lat="51.7349212244" lon="-1.7866872344"><ele>91.46</ele><time>2014-02-26T11:58:52Z</time></trkpt><trkpt lat="51.7349754553" lon="-1.7865286488"><ele>92.90</ele><time>2014-02-26T11:59:06Z</time></trkpt><trkpt lat="51.7350198794" lon="-1.7863639444"><ele>92.90</ele><time>2014-02-26T11:59:18Z</time></trkpt><trkpt lat="51.7350921314" lon="-1.7861545645"><ele>93.39</ele><time>2014-02-26T11:59:32Z</time></trkpt><trkpt lat="51.7351497151" lon="-1.7859632056"><ele>93.39</ele><time>2014-02-26T11:59:46Z</time></trkpt><trkpt lat="51.7352118250" lon="-1.7857798934"><ele>93.87</ele><time>2014-02-26T12:00:00Z</time></trkpt><trkpt lat="51.7352838255" lon="-1.7857165262"><ele>93.87</ele><time>2014-02-26T12:00:08Z</time></trkpt><trkpt lat="51.7353731766" lon="-1.7855555937"><ele>93.39</ele><time>2014-02-26T12:00:23Z</time></trkpt><trkpt lat="51.7353853304" lon="-1.7855373211"><ele>94.35</ele><time>2014-02-26T12:00:43Z</time></trkpt><trkpt lat="51.7353979871" lon="-1.7854881193"><ele>94.35</ele><time>2014-02-26T12:00:53Z</time></trkpt><trkpt lat="51.7354921997" lon="-1.7853057291"><ele>94.83</ele><time>2014-02-26T12:01:08Z</time></trkpt><trkpt lat="51.7355970573" lon="-1.7851297930"><ele>94.35</ele><time>2014-02-26T12:01:23Z</time></trkpt><trkpt lat="51.7356895097" lon="-1.7849997059"><ele>94.35</ele><time>2014-02-26T12:01:36Z</time></trkpt><trkpt lat="51.7357558943" lon="-1.7849395238"><ele>94.35</ele><time>2014-02-26T12:01:42Z</time></trkpt><trkpt lat="51.7359054275" lon="-1.7847806867"><ele>94.35</ele><time>2014-02-26T12:01:57Z</time></trkpt><trkpt lat="51.7359713092" lon="-1.7847146373"><ele>94.35</ele><time>2014-02-26T12:02:06Z</time></trkpt><trkpt lat="51.7360879853" lon="-1.7844764236"><ele>92.42</ele><time>2014-02-26T12:02:23Z</time></trkpt><trkpt lat="51.7362308130" lon="-1.7844079435"><ele>90.50</ele><time>2014-02-26T12:02:40Z</time></trkpt><trkpt lat="51.7363684438" lon="-1.7844717298"><ele>89.06</ele><time>2014-02-26T12:02:56Z</time></trkpt><trkpt lat="51.7364766542" lon="-1.7845590692"><ele>88.58</ele><time>2014-02-26T12:03:09Z</time></trkpt><trkpt lat="51.7365534324" lon="-1.7846974544"><ele>88.58</ele><time>2014-02-26T12:03:24Z</time></trkpt><trkpt lat="51.7365479004" lon="-1.7847785912"><ele>88.10</ele><time>2014-02-26T12:03:44Z</time></trkpt><trkpt lat="51.7366146203" lon="-1.7847798485"><ele>88.10</ele><time>2014-02-26T12:04:04Z</time></trkpt><trkpt lat="51.7367535923" lon="-1.7847705446"><ele>88.58</ele><time>2014-02-26T12:04:19Z</time></trkpt><trkpt lat="51.7368547618" lon="-1.7849214189"><ele>88.10</ele><time>2014-02-26T12:04:37Z</time></trkpt><trkpt lat="51.7369644810" lon="-1.7850214150"><ele>88.10</ele><time>2014-02-26T12:04:52Z</time></trkpt><trkpt lat="51.7369698454" lon="-1.7850321438"><ele>87.62</ele><time>2014-02-26T12:04:53Z</time></trkpt><trkpt lat="51.7370655667" lon="-1.7851256020"><ele>88.10</ele><time>2014-02-26T12:05:05Z</time></trkpt><trkpt lat="51.7371700890" lon="-1.7852256820"><ele>87.62</ele><time>2014-02-26T12:05:16Z</time></trkpt><trkpt lat="51.7372820713" lon="-1.7853063159"><ele>87.62</ele><time>2014-02-26T12:05:31Z</time></trkpt><trkpt lat="51.7374040280" lon="-1.7854560167"><ele>87.62</ele><time>2014-02-26T12:05:45Z</time></trkpt><trkpt lat="51.7374758609" lon="-1.7855058890"><ele>88.10</ele><time>2014-02-26T12:06:01Z</time></trkpt><trkpt lat="51.7375961412" lon="-1.7855914682"><ele>87.62</ele><time>2014-02-26T12:06:16Z</time></trkpt><trkpt lat="51.7376241367" lon="-1.7856132612"><ele>87.14</ele><time>2014-02-26T12:06:19Z</time></trkpt><trkpt lat="51.7377854884" lon="-1.7857168615"><ele>88.58</ele><time>2014-02-26T12:06:34Z</time></trkpt><trkpt lat="51.7378458381" lon="-1.7857551668"><ele>88.58</ele><time>2014-02-26T12:06:49Z</time></trkpt><trkpt lat="51.7378744204" lon="-1.7857570946"><ele>89.06</ele><time>2014-02-26T12:07:11Z</time></trkpt><trkpt lat="51.7379185092" lon="-1.7858026084"><ele>88.58</ele><time>2014-02-26T12:07:24Z</time></trkpt><trkpt lat="51.7380384542" lon="-1.7858983297"><ele>88.58</ele><time>2014-02-26T12:07:39Z</time></trkpt><trkpt lat="51.7380936909" lon="-1.7859478667"><ele>89.54</ele><time>2014-02-26T12:07:45Z</time></trkpt><trkpt lat="51.7381391209" lon="-1.7859658040"><ele>89.06</ele><time>2014-02-26T12:07:48Z</time></trkpt><trkpt lat="51.7381887417" lon="-1.7860178556"><ele>89.06</ele><time>2014-02-26T12:08:04Z</time></trkpt><trkpt lat="51.7382800207" lon="-1.7861310951"><ele>90.02</ele><time>2014-02-26T12:08:19Z</time></trkpt><trkpt lat="51.7383600678" lon="-1.7862566561"><ele>90.02</ele><time>2014-02-26T12:08:32Z</time></trkpt><trkpt lat="51.7384595610" lon="-1.7863890063"><ele>90.50</ele><time>2014-02-26T12:08:45Z</time></trkpt><trkpt lat="51.7386071663" lon="-1.7866014875"><ele>90.50</ele><time>2014-02-26T12:09:03Z</time></trkpt><trkpt lat="51.7387297098" lon="-1.7866056785"><ele>91.46</ele><time>2014-02-26T12:09:15Z</time></trkpt><trkpt lat="51.7387872934" lon="-1.7864535470"><ele>90.02</ele><time>2014-02-26T12:09:27Z</time></trkpt><trkpt lat="51.7388332263" lon="-1.7863543052"><ele>89.54</ele><time>2014-02-26T12:09:38Z</time></trkpt><trkpt lat="51.7388890497" lon="-1.7862807121"><ele>89.06</ele><time>2014-02-26T12:09:46Z</time></trkpt><trkpt lat="51.7389947455" lon="-1.7861974798"><ele>88.58</ele><time>2014-02-26T12:10:00Z</time></trkpt><trkpt lat="51.7390820850" lon="-1.7860770319"><ele>89.06</ele><time>2014-02-26T12:10:13Z</time></trkpt><trkpt lat="51.7391007766" lon="-1.7860602681"><ele>88.58</ele><time>2014-02-26T12:10:29Z</time></trkpt><trkpt lat="51.7391279340" lon="-1.7860238068"><ele>89.06</ele><time>2014-02-26T12:10:45Z</time></trkpt><trkpt lat="51.7391327117" lon="-1.7860370502"><ele>89.06</ele><time>2014-02-26T12:11:07Z</time></trkpt><trkpt lat="51.7392975837" lon="-1.7860833183"><ele>88.58</ele><time>2014-02-26T12:11:26Z</time></trkpt><trkpt lat="51.7394591868" lon="-1.7860582564"><ele>88.58</ele><time>2014-02-26T12:11:40Z</time></trkpt><trkpt lat="51.7396091390" lon="-1.7860587593"><ele>88.58</ele><time>2014-02-26T12:11:54Z</time></trkpt><trkpt lat="51.7396211252" lon="-1.7860573344"><ele>88.58</ele><time>2014-02-26T12:11:55Z</time></trkpt><trkpt lat="51.7397918645" lon="-1.7860626988"><ele>89.06</ele><time>2014-02-26T12:12:11Z</time></trkpt><trkpt lat="51.7398671340" lon="-1.7860264890"><ele>89.06</ele><time>2014-02-26T12:12:24Z</time></trkpt><trkpt lat="51.7399713211" lon="-1.7860018462"><ele>89.06</ele><time>2014-02-26T12:12:37Z</time></trkpt><trkpt lat="51.7400724068" lon="-1.7859820649"><ele>89.06</ele><time>2014-02-26T12:12:48Z</time></trkpt><trkpt lat="51.7401719000" lon="-1.7859645467"><ele>89.06</ele><time>2014-02-26T12:13:00Z</time></trkpt><trkpt lat="51.7402037513" lon="-1.7859394848"><ele>88.58</ele><time>2014-02-26T12:13:04Z</time></trkpt><trkpt lat="51.7402341776" lon="-1.7859269120"><ele>89.06</ele><time>2014-02-26T12:13:08Z</time></trkpt><trkpt lat="51.7403384484" lon="-1.7859233916"><ele>89.06</ele><time>2014-02-26T12:13:22Z</time></trkpt><trkpt lat="51.7403692100" lon="-1.7859160155"><ele>89.06</ele><time>2014-02-26T12:13:38Z</time></trkpt><trkpt lat="51.7404816113" lon="-1.7858744413"><ele>89.06</ele><time>2014-02-26T12:13:50Z</time></trkpt><trkpt lat="51.7406324856" lon="-1.7858347110"><ele>89.06</ele><time>2014-02-26T12:14:06Z</time></trkpt><trkpt lat="51.7407650035" lon="-1.7857990880"><ele>89.06</ele><time>2014-02-26T12:14:21Z</time></trkpt><trkpt lat="51.7409014609" lon="-1.7857654765"><ele>88.58</ele><time>2014-02-26T12:14:37Z</time></trkpt><trkpt lat="51.7410307098" lon="-1.7857156042"><ele>89.54</ele><time>2014-02-26T12:14:51Z</time></trkpt><trkpt lat="51.7411329690" lon="-1.7857244052"><ele>90.02</ele><time>2014-02-26T12:15:04Z</time></trkpt><trkpt lat="51.7411686759" lon="-1.7857013550"><ele>89.54</ele><time>2014-02-26T12:15:18Z</time></trkpt><trkpt lat="51.7411732022" lon="-1.7857093178"><ele>90.02</ele><time>2014-02-26T12:15:34Z</time></trkpt><trkpt lat="51.7412441969" lon="-1.7856614571"><ele>90.02</ele><time>2014-02-26T12:15:49Z</time></trkpt><trkpt lat="51.7413132638" lon="-1.7856047954"><ele>89.54</ele><time>2014-02-26T12:16:02Z</time></trkpt><trkpt lat="51.7413479649" lon="-1.7855888698"><ele>89.54</ele><time>2014-02-26T12:16:06Z</time></trkpt><trkpt lat="51.7414667364" lon="-1.7855160311"><ele>90.50</ele><time>2014-02-26T12:16:20Z</time></trkpt><trkpt lat="51.7416001763" lon="-1.7854042165"><ele>90.02</ele><time>2014-02-26T12:16:38Z</time></trkpt><trkpt lat="51.7417268269" lon="-1.7852994427"><ele>89.54</ele><time>2014-02-26T12:16:54Z</time></trkpt><trkpt lat="51.7418652121" lon="-1.7851678468"><ele>90.50</ele><time>2014-02-26T12:17:11Z</time></trkpt><trkpt lat="51.7419444211" lon="-1.7850986961"><ele>90.50</ele><time>2014-02-26T12:17:24Z</time></trkpt><trkpt lat="51.7419599276" lon="-1.7850876320"><ele>90.50</ele><time>2014-02-26T12:17:37Z</time></trkpt><trkpt lat="51.7421351932" lon="-1.7849866301"><ele>90.98</ele><time>2014-02-26T12:17:52Z</time></trkpt><trkpt lat="51.7421841435" lon="-1.7849617358"><ele>91.46</ele><time>2014-02-26T12:17:56Z</time></trkpt><trkpt lat="51.7422973830" lon="-1.7848452274"><ele>91.46</ele><time>2014-02-26T12:18:12Z</time></trkpt><trkpt lat="51.7424005643" lon="-1.7847119551"><ele>91.46</ele><time>2014-02-26T12:18:30Z</time></trkpt><trkpt lat="51.7425478343" lon="-1.7846442293"><ele>90.50</ele><time>2014-02-26T12:18:46Z</time></trkpt><trkpt lat="51.7426365986" lon="-1.7845796049"><ele>91.46</ele><time>2014-02-26T12:19:01Z</time></trkpt><trkpt lat="51.7426975351" lon="-1.7845087778"><ele>91.46</ele><time>2014-02-26T12:19:09Z</time></trkpt><trkpt lat="51.7427671049" lon="-1.7844409682"><ele>91.46</ele><time>2014-02-26T12:19:18Z</time></trkpt><trkpt lat="51.7428027280" lon="-1.7844157387"><ele>91.46</ele><time>2014-02-26T12:19:21Z</time></trkpt><trkpt lat="51.7429126147" lon="-1.7843252141"><ele>90.98</ele><time>2014-02-26T12:19:31Z</time></trkpt><trkpt lat="51.7430005409" lon="-1.7842461728"><ele>91.46</ele><time>2014-02-26T12:19:40Z</time></trkpt><trkpt lat="51.7430321407" lon="-1.7842195183"><ele>90.98</ele><time>2014-02-26T12:19:43Z</time></trkpt><trkpt lat="51.7430742178" lon="-1.7841906846"><ele>90.98</ele><time>2014-02-26T12:19:47Z</time></trkpt><trkpt lat="51.7432212364" lon="-1.7840988189"><ele>90.98</ele><time>2014-02-26T12:20:01Z</time></trkpt><trkpt lat="51.7433467973" lon="-1.7840199452"><ele>90.50</ele><time>2014-02-26T12:20:13Z</time></trkpt><trkpt lat="51.7434750404" lon="-1.7839283310"><ele>89.06</ele><time>2014-02-26T12:20:26Z</time></trkpt><trkpt lat="51.7435327917" lon="-1.7838762794"><ele>89.54</ele><time>2014-02-26T12:20:33Z</time></trkpt><trkpt lat="51.7436430976" lon="-1.7838725913"><ele>90.02</ele><time>2014-02-26T12:20:48Z</time></trkpt><trkpt lat="51.7436809000" lon="-1.7838559113"><ele>89.54</ele><time>2014-02-26T12:21:00Z</time></trkpt><trkpt lat="51.7436627112" lon="-1.7837994173"><ele>89.54</ele><time>2014-02-26T12:21:10Z</time></trkpt><trkpt lat="51.7436089832" lon="-1.7837589327"><ele>89.54</ele><time>2014-02-26T12:21:25Z</time></trkpt><trkpt lat="51.7436228972" lon="-1.7837680690"><ele>89.54</ele><time>2014-02-26T12:21:44Z</time></trkpt><trkpt lat="51.7436298542" lon="-1.7838601861"><ele>90.02</ele><time>2014-02-26T12:21:57Z</time></trkpt><trkpt lat="51.7436355539" lon="-1.7838821467"><ele>90.02</ele><time>2014-02-26T12:22:15Z</time></trkpt><trkpt lat="51.7436389066" lon="-1.7838927079"><ele>90.02</ele><time>2014-02-26T12:22:29Z</time></trkpt><trkpt lat="51.7436286807" lon="-1.7838927079"><ele>90.02</ele><time>2014-02-26T12:22:40Z</time></trkpt><trkpt lat="51.7436565086" lon="-1.7838551570"><ele>90.02</ele><time>2014-02-26T12:22:59Z</time></trkpt><trkpt lat="51.7438171897" lon="-1.7838017642"><ele>90.50</ele><time>2014-02-26T12:23:14Z</time></trkpt><trkpt lat="51.7439530604" lon="-1.7837588489"><ele>89.54</ele><time>2014-02-26T12:23:29Z</time></trkpt><trkpt lat="51.7440352868" lon="-1.7837423366"><ele>90.98</ele><time>2014-02-26T12:23:37Z</time></trkpt><trkpt lat="51.7441108078" lon="-1.7837189510"><ele>89.54</ele><time>2014-02-26T12:23:47Z</time></trkpt><trkpt lat="51.7442200240" lon="-1.7836918775"><ele>89.54</ele><time>2014-02-26T12:23:59Z</time></trkpt><trkpt lat="51.7443561461" lon="-1.7836396582"><ele>90.02</ele><time>2014-02-26T12:24:14Z</time></trkpt><trkpt lat="51.7444097064" lon="-1.7836233974"><ele>90.02</ele><time>2014-02-26T12:24:20Z</time></trkpt><trkpt lat="51.7444427311" lon="-1.7836114112"><ele>89.06</ele><time>2014-02-26T12:24:23Z</time></trkpt><trkpt lat="51.7445771769" lon="-1.7835728545"><ele>89.54</ele><time>2014-02-26T12:24:37Z</time></trkpt><trkpt lat="51.7446443159" lon="-1.7835498881"><ele>90.02</ele><time>2014-02-26T12:24:45Z</time></trkpt><trkpt lat="51.7447736487" lon="-1.7834860180"><ele>90.02</ele><time>2014-02-26T12:25:02Z</time></trkpt><trkpt lat="51.7447741516" lon="-1.7834901251"><ele>89.54</ele><time>2014-02-26T12:25:15Z</time></trkpt><trkpt lat="51.7447785940" lon="-1.7834893707"><ele>89.06</ele><time>2014-02-26T12:25:30Z</time></trkpt><trkpt lat="51.7447828688" lon="-1.7834906280"><ele>90.98</ele><time>2014-02-26T12:25:41Z</time></trkpt><trkpt lat="51.7447844613" lon="-1.7834999319"><ele>90.02</ele><time>2014-02-26T12:26:13Z</time></trkpt><trkpt lat="51.7447904125" lon="-1.7835103255"><ele>89.54</ele><time>2014-02-26T12:26:41Z</time></trkpt><trkpt lat="51.7447824497" lon="-1.7835074756"><ele>90.98</ele><time>2014-02-26T12:27:06Z</time></trkpt><trkpt lat="51.7448627483" lon="-1.7834282666"><ele>91.46</ele><time>2014-02-26T12:27:23Z</time></trkpt><trkpt lat="51.7449809331" lon="-1.7833471298"><ele>91.46</ele><time>2014-02-26T12:27:38Z</time></trkpt><trkpt lat="51.7450142093" lon="-1.7833580263"><ele>91.46</ele><time>2014-02-26T12:27:52Z</time></trkpt><trkpt lat="51.7450919934" lon="-1.7833914701"><ele>91.46</ele><time>2014-02-26T12:28:05Z</time></trkpt><trkpt lat="51.7451789975" lon="-1.7835332081"><ele>92.42</ele><time>2014-02-26T12:28:17Z</time></trkpt><trkpt lat="51.7452123575" lon="-1.7837639619"><ele>91.46</ele><time>2014-02-26T12:28:29Z</time></trkpt><trkpt lat="51.7452490702" lon="-1.7839913629"><ele>91.46</ele><time>2014-02-26T12:28:42Z</time></trkpt><trkpt lat="51.7452498246" lon="-1.7841062788"><ele>92.90</ele><time>2014-02-26T12:28:56Z</time></trkpt><trkpt lat="51.7452595476" lon="-1.7841809615"><ele>93.39</ele><time>2014-02-26T12:29:01Z</time></trkpt><trkpt lat="51.7452977691" lon="-1.7844671197"><ele>93.39</ele><time>2014-02-26T12:29:17Z</time></trkpt><trkpt lat="51.7453014571" lon="-1.7844812851"><ele>93.39</ele><time>2014-02-26T12:29:18Z</time></trkpt><trkpt lat="51.7453719489" lon="-1.7847487517"><ele>92.90</ele><time>2014-02-26T12:29:34Z</time></trkpt><trkpt lat="51.7454374954" lon="-1.7849410325"><ele>92.90</ele><time>2014-02-26T12:29:47Z</time></trkpt><trkpt lat="51.7454809975" lon="-1.7850742210"><ele>94.35</ele><time>2014-02-26T12:29:56Z</time></trkpt><trkpt lat="51.7455742881" lon="-1.7853578646"><ele>96.27</ele><time>2014-02-26T12:30:15Z</time></trkpt><trkpt lat="51.7455803230" lon="-1.7853705212"><ele>96.27</ele><time>2014-02-26T12:30:16Z</time></trkpt><trkpt lat="51.7455894593" lon="-1.7854002770"><ele>96.27</ele><time>2014-02-26T12:30:18Z</time></trkpt><trkpt lat="51.7456587777" lon="-1.7856268398"><ele>97.23</ele><time>2014-02-26T12:30:33Z</time></trkpt><trkpt lat="51.7457099911" lon="-1.7857673205"><ele>97.23</ele><time>2014-02-26T12:30:43Z</time></trkpt><trkpt lat="51.7457271740" lon="-1.7858619522"><ele>97.71</ele><time>2014-02-26T12:30:48Z</time></trkpt><trkpt lat="51.7457648087" lon="-1.7859978229"><ele>96.75</ele><time>2014-02-26T12:30:58Z</time></trkpt><trkpt lat="51.7458080593" lon="-1.7862989008"><ele>97.23</ele><time>2014-02-26T12:31:16Z</time></trkpt><trkpt lat="51.7458400782" lon="-1.7865125556"><ele>97.71</ele><time>2014-02-26T12:31:28Z</time></trkpt><trkpt lat="51.7458343785" lon="-1.7867894098"><ele>97.71</ele><time>2014-02-26T12:31:43Z</time></trkpt><trkpt lat="51.7458110768" lon="-1.7869935092"><ele>97.71</ele><time>2014-02-26T12:31:53Z</time></trkpt><trkpt lat="51.7457570974" lon="-1.7870904878"><ele>97.23</ele><time>2014-02-26T12:31:59Z</time></trkpt><trkpt lat="51.7457228154" lon="-1.7871701997"><ele>96.27</ele><time>2014-02-26T12:32:05Z</time></trkpt><trkpt lat="51.7456582747" lon="-1.7873125244"><ele>95.31</ele><time>2014-02-26T12:32:20Z</time></trkpt><trkpt lat="51.7456541676" lon="-1.7873219121"><ele>95.79</ele><time>2014-02-26T12:32:21Z</time></trkpt><trkpt lat="51.7456545867" lon="-1.7873097584"><ele>97.23</ele><time>2014-02-26T12:32:23Z</time></trkpt><trkpt lat="51.7456614599" lon="-1.7872958444"><ele>96.75</ele><time>2014-02-26T12:32:44Z</time></trkpt><trkpt lat="51.7456613760" lon="-1.7872953415"><ele>97.23</ele><time>2014-02-26T12:32:45Z</time></trkpt><trkpt lat="51.7455021199" lon="-1.7874097545"><ele>95.79</ele><time>2014-02-26T12:32:58Z</time></trkpt><trkpt lat="51.7453810852" lon="-1.7874528375"><ele>95.79</ele><time>2014-02-26T12:33:07Z</time></trkpt><trkpt lat="51.7452013772" lon="-1.7875608802"><ele>94.35</ele><time>2014-02-26T12:33:22Z</time></trkpt><trkpt lat="51.7450529337" lon="-1.7876472138"><ele>93.39</ele><time>2014-02-26T12:33:35Z</time></trkpt><trkpt lat="51.7448692862" lon="-1.7877336312"><ele>93.39</ele><time>2014-02-26T12:33:52Z</time></trkpt><trkpt lat="51.7448392790" lon="-1.7877516523"><ele>93.39</ele><time>2014-02-26T12:33:55Z</time></trkpt><trkpt lat="51.7446559668" lon="-1.7878939770"><ele>93.39</ele><time>2014-02-26T12:34:12Z</time></trkpt><trkpt lat="51.7444963753" lon="-1.7880338710"><ele>93.39</ele><time>2014-02-26T12:34:28Z</time></trkpt><trkpt lat="51.7443687189" lon="-1.7881446797"><ele>91.94</ele><time>2014-02-26T12:34:40Z</time></trkpt><trkpt lat="51.7442255560" lon="-1.7882736772"><ele>92.90</ele><time>2014-02-26T12:34:54Z</time></trkpt><trkpt lat="51.7442185991" lon="-1.7882832326"><ele>92.42</ele><time>2014-02-26T12:34:55Z</time></trkpt><trkpt lat="51.7441728339" lon="-1.7883439176"><ele>91.94</ele><time>2014-02-26T12:35:00Z</time></trkpt><trkpt lat="51.7439941317" lon="-1.7885287385"><ele>92.42</ele><time>2014-02-26T12:35:18Z</time></trkpt><trkpt lat="51.7438600212" lon="-1.7886374518"><ele>92.42</ele><time>2014-02-26T12:35:32Z</time></trkpt><trkpt lat="51.7437289283" lon="-1.7887621745"><ele>92.42</ele><time>2014-02-26T12:35:47Z</time></trkpt><trkpt lat="51.7437115777" lon="-1.7887871526"><ele>92.42</ele><time>2014-02-26T12:35:49Z</time></trkpt><trkpt lat="51.7435856815" lon="-1.7889408767"><ele>92.42</ele><time>2014-02-26T12:36:04Z</time></trkpt><trkpt lat="51.7435111664" lon="-1.7890226003"><ele>91.46</ele><time>2014-02-26T12:36:18Z</time></trkpt><trkpt lat="51.7435369827" lon="-1.7890183255"><ele>91.94</ele><time>2014-02-26T12:36:31Z</time></trkpt><trkpt lat="51.7435048800" lon="-1.7890578043"><ele>91.94</ele><time>2014-02-26T12:36:45Z</time></trkpt><trkpt lat="51.7433764692" lon="-1.7891997099"><ele>91.94</ele><time>2014-02-26T12:37:00Z</time></trkpt><trkpt lat="51.7432776466" lon="-1.7893960141"><ele>92.42</ele><time>2014-02-26T12:37:13Z</time></trkpt><trkpt lat="51.7432421912" lon="-1.7894614767"><ele>92.42</ele><time>2014-02-26T12:37:18Z</time></trkpt><trkpt lat="51.7431923188" lon="-1.7896093335"><ele>91.94</ele><time>2014-02-26T12:37:28Z</time></trkpt><trkpt lat="51.7431678437" lon="-1.7896747123"><ele>92.90</ele><time>2014-02-26T12:37:32Z</time></trkpt><trkpt lat="51.7431643233" lon="-1.7898251675"><ele>92.90</ele><time>2014-02-26T12:37:46Z</time></trkpt><trkpt lat="51.7432755511" lon="-1.7898586113"><ele>93.39</ele><time>2014-02-26T12:38:01Z</time></trkpt><trkpt lat="51.7434497271" lon="-1.7898991797"><ele>93.87</ele><time>2014-02-26T12:38:15Z</time></trkpt><trkpt lat="51.7436290998" lon="-1.7899207212"><ele>94.83</ele><time>2014-02-26T12:38:32Z</time></trkpt><trkpt lat="51.7437170260" lon="-1.7897488922"><ele>95.31</ele><time>2014-02-26T12:38:48Z</time></trkpt><trkpt lat="51.7437995039" lon="-1.7895275261"><ele>94.83</ele><time>2014-02-26T12:39:05Z</time></trkpt><trkpt lat="51.7439228855" lon="-1.7893189844"><ele>94.83</ele><time>2014-02-26T12:39:21Z</time></trkpt><trkpt lat="51.7439409066" lon="-1.7892572097"><ele>94.83</ele><time>2014-02-26T12:39:25Z</time></trkpt><trkpt lat="51.7439711653" lon="-1.7890980374"><ele>94.35</ele><time>2014-02-26T12:39:39Z</time></trkpt><trkpt lat="51.7439694051" lon="-1.7891104426"><ele>94.35</ele><time>2014-02-26T12:39:48Z</time></trkpt></trkseg></trk></gpx>